Time;durP1;ratioP1;P1;durP2;ratioP2;P2;SDS_P1;SDS_P2;PMS_P1;PMS_P2;Temp;Humidity;BMP_temperature;BMP_pressure;BME280_temperature;BME280_humidity;BME280_pressure;Samples;Min_cycle;Max_cycle;Signal;HPM_P1;HPM_P2
2023/11/22 00:02:21;;;;;;;14.93;8.80;;;7.50;1.00;;;;;;6187311;23;20173;-59
2023/11/22 00:04:46;;;;;;;9.93;7.97;;;7.50;1.00;;;;;;6187528;23;20150;-57
2023/11/22 00:07:12;;;;;;;9.87;7.30;;;7.50;1.00;;;;;;6187160;23;20498;-54
2023/11/22 00:09:38;;;;;;;9.83;7.90;;;7.50;1.00;;;;;;6187410;23;20137;-58
2023/11/22 00:12:04;;;;;;;8.20;7.10;;;7.50;1.00;;;;;;6187932;23;20153;-56
2023/11/22 00:14:29;;;;;;;8.40;7.50;;;7.50;1.00;;;;;;6188477;23;20390;-54
2023/11/22 00:16:55;;;;;;;8.10;7.10;;;7.50;1.00;;;;;;6186772;23;20707;-58
2023/11/22 00:19:22;;;;;;;11.60;8.73;;;7.50;1.00;;;;;;6187590;23;20177;-56
2023/11/22 00:21:48;;;;;;;10.93;7.77;;;7.50;1.00;;;;;;6186836;23;20135;-57
2023/11/22 00:24:13;;;;;;;11.93;8.20;;;7.90;1.00;;;;;;6187903;23;20790;-57
2023/11/22 00:26:40;;;;;;;9.40;7.57;;;8.60;1.00;;;;;;6187760;23;20405;-58
2023/11/22 00:29:06;;;;;;;12.70;9.40;;;9.20;1.00;;;;;;6185572;23;20181;-55
2023/11/22 00:31:32;;;;;;;11.77;8.20;;;9.60;1.00;;;;;;6186895;23;20821;-57
2023/11/22 00:33:57;;;;;;;10.37;6.43;;;9.90;1.00;;;;;;6187661;23;20244;-59
2023/11/22 00:36:23;;;;;;;8.30;5.00;;;10.20;1.00;;;;;;6187155;23;20650;-58
2023/11/22 00:38:48;;;;;;;4.17;3.13;;;10.50;1.00;;;;;;6187782;23;20201;-56
2023/11/22 00:41:14;;;;;;;2.30;1.90;;;10.00;1.00;;;;;;6187461;23;20154;-58
2023/11/22 00:43:40;;;;;;;2.00;1.80;;;9.50;99.90;;;;;;6188187;23;20221;-58
2023/11/22 00:46:06;;;;;;;2.20;1.90;;;9.00;1.00;;;;;;6186979;23;20146;-57
2023/11/22 00:48:32;;;;;;;2.53;2.33;;;8.50;99.90;;;;;;6187616;23;20455;-56
2023/11/22 00:50:57;;;;;;;2.63;2.43;;;8.10;1.00;;;;;;6162210;23;20201;-58
2023/11/22 00:53:23;;;;;;;4.67;3.10;;;7.70;1.00;;;;;;6187253;23;20386;-56
2023/11/22 00:55:49;;;;;;;3.80;3.17;;;7.40;1.00;;;;;;6186958;23;20242;-56
2023/11/22 00:58:15;;;;;;;3.27;2.93;;;7.20;1.00;;;;;;6186607;23;20163;-59
2023/11/22 01:00:40;;;;;;;4.03;3.67;;;6.90;93.80;;;;;;6187320;23;20135;-58
2023/11/22 01:03:08;;;;;;;4.60;4.10;;;6.70;99.90;;;;;;6186547;23;20381;-57
2023/11/22 01:05:34;;;;;;;5.80;4.40;;;6.50;99.90;;;;;;6185988;23;20229;-55
2023/11/22 01:08:00;;;;;;;5.80;4.73;;;6.30;99.90;;;;;;6186117;23;20440;-58
2023/11/22 01:10:25;;;;;;;4.20;3.80;;;6.20;99.90;;;;;;6186857;23;20155;-57
2023/11/22 01:12:51;;;;;;;5.30;4.80;;;6.10;99.90;;;;;;6186599;23;20422;-56
2023/11/22 01:15:16;;;;;;;5.47;4.70;;;6.00;99.90;;;;;;6186951;23;20135;-59
2023/11/22 01:17:42;;;;;;;5.37;4.87;;;6.00;99.90;;;;;;6187405;23;20580;-58
2023/11/22 01:20:10;;;;;;;5.87;4.30;;;5.90;99.90;;;;;;6187258;23;20155;-57
2023/11/22 01:22:37;;;;;;;5.30;4.80;;;5.80;99.90;;;;;;6186873;23;20229;-58
2023/11/22 01:25:04;;;;;;;7.50;5.00;;;5.70;99.90;;;;;;6186782;23;20474;-58
2023/11/22 01:27:30;;;;;;;5.70;5.20;;;5.70;99.90;;;;;;6186570;23;20413;-59
2023/11/22 01:29:56;;;;;;;7.00;5.80;;;5.70;99.90;;;;;;6187650;23;20393;-58
2023/11/22 01:32:22;;;;;;;7.60;6.73;;;5.60;99.90;;;;;;6187244;23;20189;-58
2023/11/22 01:34:47;;;;;;;6.00;5.40;;;5.50;99.90;;;;;;6186512;23;20422;-56
2023/11/22 01:37:13;;;;;;;5.70;5.10;;;5.50;99.90;;;;;;6186361;23;20159;-56
2023/11/22 01:39:41;;;;;;;5.47;4.90;;;5.50;99.90;;;;;;6184716;23;20134;-57
2023/11/22 01:42:07;;;;;;;5.60;4.77;;;5.40;99.90;;;;;;6184180;23;20266;-58
2023/11/22 01:44:33;;;;;;;5.03;4.50;;;5.40;99.90;;;;;;6184728;23;20477;-56
2023/11/22 01:46:59;;;;;;;7.33;5.30;;;5.30;99.90;;;;;;6185341;23;20933;-56
2023/11/22 01:49:24;;;;;;;6.80;5.17;;;5.20;99.90;;;;;;6158533;23;20186;-57
2023/11/22 01:51:50;;;;;;;6.50;5.23;;;5.20;99.90;;;;;;6184556;23;20131;-58
2023/11/22 01:54:17;;;;;;;6.77;6.17;;;5.20;99.90;;;;;;6185299;23;20242;-59
2023/11/22 01:56:44;;;;;;;8.17;6.20;;;5.20;99.90;;;;;;6159662;23;20434;-55
2023/11/22 01:59:10;;;;;;;6.50;5.90;;;5.10;99.90;;;;;;6185891;23;20802;-56
2023/11/22 02:01:37;;;;;;;6.73;6.00;;;5.10;99.90;;;;;;6186113;23;20386;-56
2023/11/22 02:04:02;;;;;;;8.97;7.27;;;5.10;99.90;;;;;;6186484;23;20241;-56
2023/11/22 02:06:30;;;;;;;7.73;6.90;;;5.00;99.90;;;;;;6187338;23;20370;-57
2023/11/22 02:08:56;;;;;;;7.17;6.47;;;4.90;99.90;;;;;;6187121;23;20193;-56
2023/11/22 02:11:22;;;;;;;6.90;6.20;;;4.90;99.90;;;;;;6187167;23;20382;-55
2023/11/22 02:13:50;;;;;;;7.13;6.30;;;4.80;99.90;;;;;;6186611;23;20411;-58
2023/11/22 02:16:17;;;;;;;7.13;6.43;;;4.80;99.90;;;;;;6186949;23;20237;-57
2023/11/22 02:18:49;;;;;;;6.30;5.57;;;4.70;99.90;;;;;;6187671;23;20623;-56
2023/11/22 02:21:17;;;;;;;6.37;5.77;;;4.70;99.90;;;;;;6189274;23;20377;-56
2023/11/22 02:23:42;;;;;;;7.97;6.13;;;4.60;99.90;;;;;;6162337;23;20416;-56
2023/11/22 02:26:08;;;;;;;6.73;6.03;;;4.60;99.90;;;;;;6188107;23;20382;-58
2023/11/22 02:28:34;;;;;;;6.87;5.70;;;4.60;99.90;;;;;;6187671;23;20183;-56
2023/11/22 02:30:59;;;;;;;6.30;5.70;;;4.50;99.90;;;;;;6188249;23;20131;-57
2023/11/22 02:33:25;;;;;;;6.70;5.93;;;4.40;99.90;;;;;;6189032;23;20213;-58
2023/11/22 02:35:50;;;;;;;6.07;5.47;;;4.40;99.90;;;;;;6188229;23;20198;-57
2023/11/22 02:38:18;;;;;;;7.27;5.73;;;4.40;52.50;;;;;;6188256;23;20158;-57
2023/11/22 02:40:43;;;;;;;7.20;6.47;;;4.40;63.90;;;;;;6188593;23;20158;-58
2023/11/22 02:43:11;;;;;;;6.27;5.40;;;4.30;46.30;;;;;;6188620;23;20458;-57
2023/11/22 02:45:37;;;;;;;7.33;5.13;;;4.20;39.80;;;;;;6188637;23;20135;-57
2023/11/22 02:48:03;;;;;;;6.87;5.50;;;4.20;30.10;;;;;;6188540;23;20443;-57
2023/11/22 02:50:29;;;;;;;6.30;5.40;;;4.10;70.90;;;;;;6189399;23;20393;-58
2023/11/22 02:52:55;;;;;;;7.00;5.87;;;4.00;57.90;;;;;;6188518;23;20496;-57
2023/11/22 02:55:20;;;;;;;12.60;6.40;;;4.00;99.90;;;;;;6188868;23;20386;-57
2023/11/22 02:57:46;;;;;;;7.23;6.10;;;3.90;99.90;;;;;;6187922;23;20433;-58
2023/11/22 03:00:15;;;;;;;7.57;6.50;;;3.80;1.00;;;;;;6188139;23;20161;-56
2023/11/22 03:02:41;;;;;;;6.20;5.60;;;3.80;56.90;;;;;;6188556;23;20165;-57
2023/11/22 03:05:09;;;;;;;7.00;5.90;;;3.80;49.50;;;;;;6189161;23;20776;-57
2023/11/22 03:07:35;;;;;;;8.77;6.77;;;3.70;45.60;;;;;;6188148;23;20540;-56
2023/11/22 03:10:02;;;;;;;8.23;6.37;;;3.70;99.90;;;;;;6188009;23;20364;-55
2023/11/22 03:12:28;;;;;;;7.30;6.17;;;3.80;99.90;;;;;;6162636;23;20362;-57
2023/11/22 03:14:58;;;;;;;7.97;6.97;;;3.70;45.60;;;;;;6188783;23;20492;-57
2023/11/22 03:17:24;;;;;;;6.80;5.97;;;3.70;73.90;;;;;;6188664;23;20151;-55
2023/11/22 03:19:49;;;;;;;7.70;6.80;;;3.60;55.70;;;;;;6188712;23;20405;-55
2023/11/22 03:22:15;;;;;;;8.50;7.20;;;3.60;52.30;;;;;;6187875;23;20393;-55
2023/11/22 03:24:41;;;;;;;7.83;6.33;;;3.60;65.20;;;;;;6186481;23;20146;-53
2023/11/22 03:27:06;;;;;;;7.20;6.50;;;3.60;92.00;;;;;;6187681;23;20159;-54
2023/11/22 03:29:32;;;;;;;8.23;6.37;;;3.50;99.90;;;;;;6160523;23;20565;-57
2023/11/22 03:31:58;;;;;;;6.67;5.97;;;3.50;99.90;;;;;;6187254;23;20380;-57
2023/11/22 03:34:23;;;;;;;7.87;6.97;;;3.50;99.90;;;;;;6187602;23;20432;-57
2023/11/22 03:36:49;;;;;;;8.70;7.03;;;3.50;99.90;;;;;;6186686;23;20209;-56
2023/11/22 03:39:15;;;;;;;7.70;7.00;;;3.50;99.90;;;;;;6188260;23;20233;-58
2023/11/22 03:41:42;;;;;;;8.90;6.70;;;3.40;99.90;;;;;;6187792;23;20154;-57
2023/11/22 03:44:10;;;;;;;8.33;7.30;;;3.40;99.90;;;;;;6187678;23;20413;-57
2023/11/22 03:46:36;;;;;;;10.93;6.83;;;3.40;99.90;;;;;;6187632;23;20730;-55
2023/11/22 03:49:09;;;;;;;8.37;6.30;;;3.40;99.90;;;;;;6187154;23;20861;-55
2023/11/22 03:51:39;;;;;;;9.50;7.40;;;3.40;99.90;;;;;;6187222;23;20942;-58
2023/11/22 03:54:05;;;;;;;7.87;7.07;;;3.40;99.90;;;;;;6188235;23;20429;-58
2023/11/22 03:56:31;;;;;;;9.10;6.97;;;3.30;99.90;;;;;;6187899;23;20378;-55
2023/11/22 03:58:56;;;;;;;8.07;7.27;;;3.30;99.90;;;;;;6187807;23;20607;-58
2023/11/22 04:01:22;;;;;;;10.20;7.87;;;3.40;99.90;;;;;;6187486;23;20177;-58
2023/11/22 04:03:48;;;;;;;8.20;6.67;;;3.40;99.90;;;;;;6187120;23;20173;-54
2023/11/22 04:06:15;;;;;;;9.03;7.80;;;3.30;99.90;;;;;;6188426;23;20150;-54
2023/11/22 04:08:43;;;;;;;10.30;8.00;;;3.40;99.90;;;;;;6188061;23;20429;-57
2023/11/22 04:11:09;;;;;;;8.37;6.90;;;3.40;99.90;;;;;;6187367;23;20381;-58
2023/11/22 04:13:35;;;;;;;9.43;8.30;;;3.40;99.90;;;;;;6187370;23;20731;-57
2023/11/22 04:16:01;;;;;;;8.57;7.67;;;3.40;99.90;;;;;;6186490;23;20357;-57
2023/11/22 04:18:27;;;;;;;7.90;6.80;;;3.40;99.90;;;;;;6186985;23;20699;-57
2023/11/22 04:20:53;;;;;;;9.13;8.23;;;3.40;99.90;;;;;;6187940;23;20158;-57
2023/11/22 04:23:21;;;;;;;10.13;8.50;;;3.30;99.90;;;;;;6187349;23;20385;-58
2023/11/22 04:25:49;;;;;;;12.90;7.93;;;3.40;99.90;;;;;;6186845;23;20406;-57
2023/11/22 04:28:15;;;;;;;9.90;7.70;;;3.40;99.90;;;;;;6186989;23;20488;-58
2023/11/22 04:30:40;;;;;;;8.47;7.43;;;3.40;99.90;;;;;;6186832;23;20351;-56
2023/11/22 04:33:06;;;;;;;9.53;8.20;;;3.50;99.90;;;;;;6187420;23;20212;-58
2023/11/22 04:35:36;;;;;;;7.30;6.47;;;3.50;99.90;;;;;;6186295;23;20194;-57
2023/11/22 04:38:01;;;;;;;7.40;6.67;;;3.50;99.90;;;;;;6162459;23;20224;-57
2023/11/22 04:40:27;;;;;;;8.67;7.77;;;3.50;99.90;;;;;;6187105;23;20390;-58
2023/11/22 04:42:52;;;;;;;10.20;7.97;;;3.50;99.90;;;;;;6185835;23;20146;-58
2023/11/22 04:45:18;;;;;;;8.60;7.07;;;3.50;99.90;;;;;;6188336;23;20139;-58
2023/11/22 04:47:43;;;;;;;9.10;8.20;;;3.50;99.90;;;;;;6187356;23;20174;-58
2023/11/22 04:50:09;;;;;;;8.37;7.57;;;3.60;99.90;;;;;;6187229;23;20170;-56
2023/11/22 04:52:35;;;;;;;7.70;6.90;;;3.60;99.90;;;;;;6186318;23;20155;-56
2023/11/22 04:55:01;;;;;;;9.60;7.40;;;3.60;99.90;;;;;;6185318;23;20453;-57
2023/11/22 04:57:26;;;;;;;8.23;7.10;;;3.60;99.90;;;;;;6185697;23;20518;-57
2023/11/22 04:59:53;;;;;;;8.03;7.23;;;3.60;99.90;;;;;;6186927;23;20213;-59
2023/11/22 05:02:18;;;;;;;9.53;7.30;;;3.70;99.90;;;;;;6185270;23;20479;-57
2023/11/22 05:04:48;;;;;;;8.60;7.70;;;3.70;99.90;;;;;;6186275;23;20579;-57
2023/11/22 05:07:16;;;;;;;10.23;9.23;;;3.70;99.90;;;;;;6186993;23;20216;-59
2023/11/22 05:09:45;;;;;;;10.13;9.07;;;3.70;99.90;;;;;;6187174;23;20366;-55
2023/11/22 05:12:11;;;;;;;8.63;7.73;;;3.70;99.90;;;;;;6188359;23;20377;-57
2023/11/22 05:14:37;;;;;;;8.90;8.00;;;3.80;99.90;;;;;;6186464;23;20391;-58
2023/11/22 05:17:04;;;;;;;8.73;7.93;;;3.70;92.20;;;;;;6185852;23;20153;-58
2023/11/22 05:19:31;;;;;;;7.50;6.70;;;3.80;99.90;;;;;;6187093;23;20422;-59
2023/11/22 05:21:57;;;;;;;8.23;7.17;;;3.70;3.90;;;;;;6186525;23;20598;-56
2023/11/22 05:24:22;;;;;;;7.97;7.10;;;3.70;1.00;;;;;;6186475;23;20367;-57
2023/11/22 05:26:48;;;;;;;7.07;6.37;;;3.70;1.00;;;;;;6186953;23;20472;-58
2023/11/22 05:29:14;;;;;;;7.53;6.43;;;3.60;1.00;;;;;;6186486;23;20761;-57
2023/11/22 05:31:39;;;;;;;7.50;6.53;;;3.60;1.00;;;;;;6185559;23;20147;-57
2023/11/22 05:34:05;;;;;;;8.10;6.10;;;3.60;1.00;;;;;;6186623;23;20218;-57
2023/11/22 05:36:30;;;;;;;8.00;6.80;;;3.50;1.00;;;;;;6185283;23;20459;-58
2023/11/22 05:38:59;;;;;;;6.10;5.50;;;3.50;1.00;;;;;;6186022;23;20158;-58
2023/11/22 05:41:28;;;;;;;8.20;7.40;;;3.50;1.00;;;;;;6186274;23;20155;-57
2023/11/22 05:43:53;;;;;;;7.87;6.70;;;3.50;1.00;;;;;;6185543;23;20389;-58
2023/11/22 05:46:26;;;;;;;9.40;8.27;;;3.40;1.00;;;;;;6183410;23;20405;-59
2023/11/22 05:48:54;;;;;;;7.13;6.00;;;3.40;1.00;;;;;;6160633;23;20313;-56
2023/11/22 05:51:21;;;;;;;7.17;6.40;;;3.40;1.00;;;;;;6184683;23;20733;-57
2023/11/22 05:53:47;;;;;;;7.07;6.37;;;3.50;1.40;;;;;;6183790;23;20392;-59
2023/11/22 05:56:12;;;;;;;7.10;6.40;;;3.50;16.30;;;;;;6159494;23;20424;-59
2023/11/22 05:58:39;;;;;;;8.03;6.90;;;3.50;1.00;;;;;;6186571;23;20154;-56
2023/11/22 06:01:14;;;;;;;6.80;6.10;;;3.50;8.90;;;;;;6182808;23;20154;-55
2023/11/22 06:03:39;;;;;;;7.90;7.10;;;3.50;1.00;;;;;;6184577;23;20369;-57
2023/11/22 06:06:06;;;;;;;8.57;7.70;;;3.40;1.00;;;;;;6182412;23;20642;-56
2023/11/22 06:08:32;;;;;;;7.07;6.37;;;3.40;1.00;;;;;;6155381;23;20209;-57
2023/11/22 06:10:59;;;;;;;8.87;7.37;;;3.40;1.00;;;;;;6180215;23;20385;-58
2023/11/22 06:13:25;;;;;;;8.37;6.97;;;3.40;1.00;;;;;;6180914;23;20630;-56
2023/11/22 06:15:50;;;;;;;8.37;7.33;;;3.30;1.00;;;;;;6181847;23;20368;-57
2023/11/22 06:18:16;;;;;;;9.73;7.33;;;3.30;1.00;;;;;;6182926;23;20201;-56
2023/11/22 06:20:42;;;;;;;10.57;9.00;;;3.30;1.00;;;;;;6180166;23;20227;-57
2023/11/22 06:23:08;;;;;;;24.53;13.57;;;3.30;1.00;;;;;;6181991;23;20162;-59
2023/11/22 06:25:35;;;;;;;29.90;16.60;;;3.30;1.00;;;;;;6184135;23;20385;-58
2023/11/22 06:28:02;;;;;;;9.80;7.90;;;3.30;1.00;;;;;;6156666;23;20167;-58
2023/11/22 06:30:30;;;;;;;9.63;7.93;;;3.30;1.00;;;;;;6182950;23;20364;-55
2023/11/22 06:32:56;;;;;;;15.87;11.40;;;3.20;1.00;;;;;;6183035;23;20754;-58
2023/11/22 06:35:22;;;;;;;10.77;8.50;;;3.30;1.00;;;;;;6157497;23;20430;-56
2023/11/22 06:37:48;;;;;;;11.13;8.43;;;3.20;1.00;;;;;;6183536;23;20538;-57
2023/11/22 06:40:14;;;;;;;10.73;8.30;;;3.20;1.00;;;;;;6185063;23;20389;-59
2023/11/22 06:42:41;;;;;;;11.57;8.80;;;3.20;1.00;;;;;;6185333;23;20159;-59
2023/11/22 06:45:09;;;;;;;11.33;9.53;;;3.20;1.00;;;;;;6183085;23;20655;-58
2023/11/22 06:47:36;;;;;;;18.00;12.20;;;3.20;1.00;;;;;;6182520;23;20782;-58
2023/11/22 06:50:02;;;;;;;12.10;9.67;;;3.20;1.00;;;;;;6182246;23;20437;-56
2023/11/22 06:52:27;;;;;;;14.33;11.30;;;3.20;1.00;;;;;;6180747;23;20485;-59
2023/11/22 06:54:53;;;;;;;11.77;9.67;;;3.10;1.00;;;;;;6182824;23;20367;-58
2023/11/22 06:57:19;;;;;;;11.57;9.00;;;3.10;1.00;;;;;;6183807;23;20135;-57
2023/11/22 06:59:44;;;;;;;8.03;6.80;;;3.10;1.00;;;;;;6185667;23;20418;-56
2023/11/22 07:02:10;;;;;;;9.03;7.10;;;3.10;1.00;;;;;;6185599;23;20159;-57
2023/11/22 07:04:35;;;;;;;7.77;6.97;;;3.10;1.00;;;;;;6185375;23;20226;-57
2023/11/22 07:07:04;;;;;;;8.20;6.70;;;3.10;1.00;;;;;;6184595;23;20134;-58
2023/11/22 07:09:29;;;;;;;17.30;12.40;;;3.20;1.00;;;;;;6185902;23;20174;-58
2023/11/22 07:11:57;;;;;;;10.90;7.70;;;3.20;1.00;;;;;;6159129;23;20473;-58
2023/11/22 07:14:24;;;;;;;10.80;8.40;;;3.20;1.00;;;;;;6185138;23;20151;-55
2023/11/22 07:16:50;;;;;;;8.33;6.97;;;3.30;1.00;;;;;;6185050;23;20382;-58
2023/11/22 07:19:16;;;;;;;12.53;9.03;;;3.30;1.00;;;;;;6184874;23;20480;-58
2023/11/22 07:21:42;;;;;;;8.20;6.87;;;3.30;1.00;;;;;;6185953;23;20358;-57
2023/11/22 07:24:08;;;;;;;9.90;8.90;;;3.30;1.00;;;;;;6185616;23;20384;-57
2023/11/22 07:26:35;;;;;;;10.93;9.80;;;3.30;1.00;;;;;;6185424;23;20437;-58
2023/11/22 07:29:01;;;;;;;8.20;7.40;;;3.30;1.00;;;;;;6185108;23;20504;-57
2023/11/22 07:31:26;;;;;;;13.20;11.37;;;3.40;1.00;;;;;;6184404;23;20393;-57
2023/11/22 07:33:52;;;;;;;9.23;7.63;;;3.40;99.90;;;;;;6184461;23;20131;-58
2023/11/22 07:36:20;;;;;;;10.57;9.57;;;3.40;99.90;;;;;;6155800;23;20274;-58
2023/11/22 07:38:48;;;;;;;9.70;7.80;;;3.30;99.90;;;;;;6154893;23;20189;-59
2023/11/22 07:41:15;;;;;;;7.77;6.60;;;3.20;99.90;;;;;;6155241;23;20766;-59
2023/11/22 07:43:41;;;;;;;8.93;8.00;;;3.20;99.90;;;;;;6155335;23;20676;-57
2023/11/22 07:46:12;;;;;;;7.63;6.70;;;3.10;99.90;;;;;;6155684;23;20462;-58
2023/11/22 07:48:42;;;;;;;7.50;6.70;;;3.10;99.90;;;;;;6156282;23;20501;-59
2023/11/22 07:51:08;;;;;;;7.30;6.47;;;3.10;1.00;;;;;;6157570;23;20378;-59
2023/11/22 07:53:34;;;;;;;8.80;6.03;;;3.10;99.90;;;;;;6157580;23;20387;-58
2023/11/22 07:56:04;;;;;;;6.17;5.57;;;3.10;99.90;;;;;;6156106;23;20424;-59
2023/11/22 07:58:31;;;;;;;9.23;5.40;;;3.10;1.00;;;;;;6155970;23;20396;-57
2023/11/22 08:00:57;;;;;;;6.13;5.53;;;3.10;99.90;;;;;;6152966;23;20925;-59
2023/11/22 08:03:25;;;;;;;5.67;4.97;;;3.10;99.90;;;;;;6154409;23;20367;-59
2023/11/22 08:05:53;;;;;;;5.60;4.90;;;3.10;99.90;;;;;;6156477;23;20783;-58
2023/11/22 08:08:20;;;;;;;5.77;5.17;;;3.10;1.00;;;;;;6156697;23;20434;-57
2023/11/22 08:10:48;;;;;;;6.47;4.63;;;3.00;1.00;;;;;;6155751;23;20409;-58
2023/11/22 08:13:16;;;;;;;5.30;4.80;;;3.00;1.00;;;;;;6131039;23;20783;-60
2023/11/22 08:15:42;;;;;;;6.70;4.60;;;3.00;1.00;;;;;;6157266;23;20362;-55
2023/11/22 08:18:07;;;;;;;5.27;4.77;;;3.00;1.00;;;;;;6156100;23;20383;-58
2023/11/22 08:20:33;;;;;;;5.73;4.47;;;3.00;99.90;;;;;;6155127;23;20467;-59
2023/11/22 08:22:59;;;;;;;5.63;4.83;;;3.00;99.90;;;;;;6154051;23;20155;-59
2023/11/22 08:25:24;;;;;;;4.60;4.20;;;3.00;1.00;;;;;;6129087;23;20518;-55
2023/11/22 08:27:50;;;;;;;5.57;4.20;;;3.00;99.90;;;;;;6154801;23;20179;-57
2023/11/22 08:30:17;;;;;;;5.03;4.50;;;3.00;1.00;;;;;;6155453;23;20142;-57
2023/11/22 08:32:47;;;;;;;5.57;4.70;;;3.10;99.90;;;;;;6156312;23;20653;-58
2023/11/22 08:35:13;;;;;;;4.70;4.10;;;3.10;99.90;;;;;;6172457;23;20484;-58
2023/11/22 08:37:41;;;;;;;5.50;4.53;;;3.10;41.30;;;;;;6186875;23;20389;-58
2023/11/22 08:40:07;;;;;;;6.07;4.80;;;3.10;1.00;;;;;;6184833;23;20453;-57
2023/11/22 08:42:35;;;;;;;5.70;5.00;;;3.10;1.00;;;;;;6185494;23;20531;-58
2023/11/22 08:45:02;;;;;;;4.83;4.40;;;3.10;1.00;;;;;;6185986;23;20604;-57
2023/11/22 08:47:29;;;;;;;5.60;5.00;;;3.20;1.00;;;;;;6186148;23;20382;-58
2023/11/22 08:49:56;;;;;;;5.63;4.90;;;3.20;1.00;;;;;;6160075;23;20397;-58
2023/11/22 08:52:23;;;;;;;5.50;4.43;;;3.30;99.90;;;;;;6185662;23;20394;-56
2023/11/22 08:54:49;;;;;;;7.10;4.00;;;3.20;1.00;;;;;;6184187;23;20461;-55
2023/11/22 08:57:15;;;;;;;7.23;4.60;;;3.30;1.00;;;;;;6183470;23;20389;-58
2023/11/22 08:59:40;;;;;;;4.70;4.17;;;3.40;99.90;;;;;;6182365;23;20161;-54
2023/11/22 09:02:18;;;;;;;5.90;4.30;;;3.40;1.00;;;;;;5131127;27;20632;-39
2023/11/22 09:04:44;;;;;;;4.80;2.90;;;3.40;1.00;;;;;;5131653;27;20721;-40
2023/11/22 09:07:10;;;;;;;16.67;6.87;;;5.00;1.00;;;;;;5131723;27;20217;-40
2023/11/22 09:09:36;;;;;;;12.57;7.80;;;7.00;1.00;;;;;;5132016;27;20202;-40
2023/11/22 09:12:01;;;;;;;11.43;8.37;;;9.30;1.00;;;;;;5133625;27;20440;-39
2023/11/22 09:14:28;;;;;;;7.47;6.67;;;9.10;1.00;;;;;;5131856;27;20419;-38
2023/11/22 09:16:54;;;;;;;6.00;5.10;;;8.10;1.00;;;;;;5131247;27;20271;-39
2023/11/22 09:19:24;;;;;;;6.13;4.90;;;7.30;1.00;;;;;;5130977;27;20462;-40
2023/11/22 09:21:50;;;;;;;5.50;4.57;;;6.20;99.90;;;;;;5131509;27;20935;-37
2023/11/22 09:24:16;;;;;;;6.30;5.10;;;5.70;1.00;;;;;;5130944;27;20456;-38
2023/11/22 09:26:43;;;;;;;6.40;5.77;;;5.30;1.00;;;;;;5130777;27;20436;-39
2023/11/22 09:29:09;;;;;;;6.50;5.80;;;5.10;99.90;;;;;;5112742;28;20451;-38
2023/11/22 09:31:37;;;;;;;6.67;5.90;;;4.90;99.90;;;;;;5132127;27;20421;-38
2023/11/22 09:34:03;;;;;;;5.73;5.00;;;4.70;1.00;;;;;;5114692;28;20473;-39
2023/11/22 09:36:32;;;;;;;6.80;5.90;;;4.70;1.00;;;;;;5131944;27;20671;-37
2023/11/22 09:38:58;;;;;;;7.90;6.40;;;4.70;53.40;;;;;;5114001;27;21069;-37
2023/11/22 09:41:25;;;;;;;6.00;5.40;;;4.70;1.00;;;;;;5131802;27;20457;-38
2023/11/22 09:43:52;;;;;;;6.73;6.03;;;4.70;99.90;;;;;;5132846;27;20497;-38
2023/11/22 09:46:20;;;;;;;7.30;6.60;;;4.60;1.00;;;;;;5113406;27;20687;-38
2023/11/22 09:48:50;;;;;;;8.10;7.33;;;4.50;1.00;;;;;;5097259;28;20834;-40
2023/11/22 09:51:21;;;;;;;6.93;6.20;;;4.50;1.00;;;;;;5132321;27;20873;-37
2023/11/22 09:54:04;;;;;;;6.27;4.80;;;4.50;1.00;;;;;;5131437;27;20413;-38
2023/11/22 09:56:30;;;;;;;7.30;6.00;;;4.50;1.00;;;;;;5129890;27;20441;-37
2023/11/22 09:59:00;;;;;;;6.83;5.53;;;4.40;1.00;;;;;;5130671;27;20420;-39
2023/11/22 10:01:36;;;;;;;6.43;5.83;;;4.40;1.00;;;;;;5131199;27;20488;-38
2023/11/22 10:04:05;;;;;;;6.33;5.70;;;4.50;1.00;;;;;;5132170;28;20684;-38
2023/11/22 10:06:34;;;;;;;6.37;5.20;;;4.50;25.40;;;;;;5113354;28;20841;-39
2023/11/22 10:09:07;;;;;;;7.83;6.30;;;4.60;1.00;;;;;;5128437;27;20424;-38
2023/11/22 10:11:43;;;;;;;6.87;5.67;;;4.60;99.90;;;;;;5130114;27;20419;-37
2023/11/22 10:14:15;;;;;;;7.73;5.70;;;4.60;1.00;;;;;;5116669;28;20505;-38
2023/11/22 10:16:40;;;;;;;7.03;6.10;;;4.40;1.00;;;;;;5097629;28;20820;-38
2023/11/22 10:19:06;;;;;;;6.20;5.60;;;4.40;1.00;;;;;;5116593;28;20574;-37
2023/11/22 10:21:32;;;;;;;9.10;7.43;;;4.30;45.90;;;;;;5114855;28;20215;-38
2023/11/22 10:24:02;;;;;;;7.87;5.83;;;4.30;99.90;;;;;;5114250;28;20409;-38
2023/11/22 10:26:28;;;;;;;7.70;6.13;;;4.20;99.90;;;;;;5113989;28;20557;-38
2023/11/22 10:28:54;;;;;;;8.77;5.97;;;4.30;99.90;;;;;;5116110;28;20922;-38
2023/11/22 10:31:24;;;;;;;6.00;5.40;;;4.20;1.00;;;;;;5114978;28;20539;-39
2023/11/22 10:33:52;;;;;;;6.90;6.17;;;4.20;99.90;;;;;;5116107;28;20449;-39
2023/11/22 10:36:20;;;;;;;9.40;7.47;;;4.20;99.90;;;;;;5116609;28;20437;-39
2023/11/22 10:38:46;;;;;;;8.43;6.63;;;4.20;99.90;;;;;;5117156;28;20406;-38
2023/11/22 10:41:13;;;;;;;8.20;6.70;;;4.10;29.40;;;;;;5099610;28;20655;-38
2023/11/22 10:43:39;;;;;;;7.17;5.90;;;4.10;45.00;;;;;;5099419;28;20460;-37
2023/11/22 10:46:06;;;;;;;7.23;6.53;;;4.10;11.80;;;;;;5117426;28;20433;-46
2023/11/22 10:48:35;;;;;;;6.70;5.63;;;4.10;1.00;;;;;;5100571;28;20556;-39
2023/11/22 10:51:05;;;;;;;6.50;5.83;;;4.00;1.00;;;;;;5099090;28;20560;-38
2023/11/22 10:53:34;;;;;;;7.43;6.63;;;4.10;99.90;;;;;;5098373;28;20413;-41
2023/11/22 10:56:19;;;;;;;7.30;5.73;;;4.20;1.00;;;;;;5116824;28;20452;-38
2023/11/22 10:58:49;;;;;;;8.37;6.07;;;4.30;1.00;;;;;;5098240;28;20739;-38
2023/11/22 11:01:30;;;;;;;7.93;6.33;;;4.40;99.90;;;;;;5116288;28;20793;-38
2023/11/22 11:04:05;;;;;;;7.60;5.70;;;4.50;99.90;;;;;;5099273;28;20529;-39
2023/11/22 11:06:34;;;;;;;9.33;6.83;;;4.40;31.40;;;;;;5114764;28;20451;-38
2023/11/22 11:09:01;;;;;;;7.03;6.33;;;4.50;99.90;;;;;;5097614;28;20410;-40
2023/11/22 11:11:28;;;;;;;7.10;6.40;;;4.60;99.90;;;;;;5097036;28;20492;-40
2023/11/22 11:13:54;;;;;;;7.20;6.50;;;4.60;99.90;;;;;;5115047;28;20437;-41
2023/11/22 11:16:20;;;;;;;11.20;8.37;;;4.70;99.90;;;;;;5098377;28;20436;-38
2023/11/22 11:18:47;;;;;;;8.37;7.47;;;4.80;1.00;;;;;;5099195;28;20496;-38
2023/11/22 11:21:13;;;;;;;9.17;7.30;;;4.80;99.90;;;;;;5117316;28;20461;-39
2023/11/22 11:23:44;;;;;;;7.50;6.70;;;4.80;1.00;;;;;;5098268;28;20702;-39
2023/11/22 11:26:22;;;;;;;9.43;7.23;;;4.90;99.90;;;;;;5097352;28;20426;-40
2023/11/22 11:28:51;;;;;;;7.70;6.90;;;4.90;1.00;;;;;;5114772;28;20448;-40
2023/11/22 11:31:21;;;;;;;9.03;8.20;;;4.90;1.00;;;;;;5098912;28;20727;-38
2023/11/22 11:33:53;;;;;;;8.43;7.43;;;4.90;99.90;;;;;;5097015;28;20734;-38
2023/11/22 11:36:23;;;;;;;9.60;7.53;;;4.80;99.90;;;;;;5114332;28;20512;-40
2023/11/22 11:38:49;;;;;;;8.60;7.70;;;4.70;99.90;;;;;;5115756;28;20432;-41
2023/11/22 11:41:15;;;;;;;12.20;7.30;;;4.70;99.90;;;;;;5097021;28;20890;-41
2023/11/22 11:43:46;;;;;;;8.17;7.37;;;4.80;99.90;;;;;;5114620;28;20554;-41
2023/11/22 11:46:15;;;;;;;9.83;8.47;;;4.80;1.00;;;;;;5114502;28;20681;-39
2023/11/22 11:48:51;;;;;;;8.37;7.23;;;4.70;1.00;;;;;;5096921;28;20988;-39
2023/11/22 11:51:22;;;;;;;9.90;7.70;;;4.70;1.00;;;;;;5097603;28;20808;-38
2023/11/22 11:53:48;;;;;;;9.93;8.90;;;4.70;1.00;;;;;;5097815;28;20890;-40
2023/11/22 11:56:15;;;;;;;9.90;8.37;;;4.80;1.00;;;;;;5093741;28;20441;-39
2023/11/22 11:58:44;;;;;;;9.60;8.27;;;4.80;51.50;;;;;;5113100;28;20531;-39
2023/11/22 12:01:14;;;;;;;10.40;9.30;;;4.80;99.90;;;;;;5112511;28;20589;-40
2023/11/22 12:03:39;;;;;;;8.90;8.03;;;4.80;99.90;;;;;;5095521;28;20692;-39
2023/11/22 12:06:06;;;;;;;9.37;8.00;;;4.80;14.20;;;;;;5112894;28;20424;-39
2023/11/22 12:08:36;;;;;;;8.93;8.00;;;4.70;36.90;;;;;;5094228;28;20233;-38
2023/11/22 12:11:03;;;;;;;9.23;7.70;;;4.60;99.90;;;;;;5112786;28;20849;-39
2023/11/22 12:13:29;;;;;;;7.60;6.07;;;4.70;99.90;;;;;;5111053;28;20741;-39
2023/11/22 12:15:55;;;;;;;11.73;9.30;;;4.90;1.00;;;;;;5111391;28;20433;-38
2023/11/22 12:18:22;;;;;;;7.83;7.03;;;5.10;77.80;;;;;;5113078;28;20203;-37
2023/11/22 12:20:59;;;;;;;9.50;8.63;;;5.10;1.00;;;;;;5113821;28;20521;-39
2023/11/22 12:23:27;;;;;;;8.47;7.67;;;4.90;99.90;;;;;;5112686;28;20456;-38
2023/11/22 12:26:00;;;;;;;10.30;8.90;;;4.80;1.00;;;;;;5095063;28;20421;-39
2023/11/22 12:28:30;;;;;;;14.60;10.60;;;4.60;1.00;;;;;;5095935;28;20498;-37
2023/11/22 12:31:05;;;;;;;9.03;8.00;;;4.50;1.00;;;;;;5114204;28;20711;-38
2023/11/22 12:33:31;;;;;;;10.93;9.33;;;4.40;1.00;;;;;;5092564;28;20435;-37
2023/11/22 12:35:57;;;;;;;9.80;8.53;;;4.40;1.00;;;;;;5113021;28;20405;-37
2023/11/22 12:38:25;;;;;;;10.00;8.70;;;4.40;99.90;;;;;;5095404;28;20406;-37
2023/11/22 12:40:51;;;;;;;9.27;8.20;;;4.50;99.90;;;;;;5113607;28;20215;-39
2023/11/22 12:43:17;;;;;;;12.27;8.80;;;4.50;1.00;;;;;;5095766;28;20693;-38
2023/11/22 12:45:45;;;;;;;7.67;6.70;;;4.50;1.00;;;;;;5114363;28;20270;-38
2023/11/22 12:48:25;;;;;;;25.53;17.10;;;4.50;1.00;;;;;;5097603;28;20168;-38
2023/11/22 12:50:53;;;;;;;35.27;20.70;;;4.50;1.00;;;;;;5080486;28;20425;-40
2023/11/22 12:53:22;;;;;;;30.37;21.57;;;4.40;1.00;;;;;;5113281;28;20409;-38
2023/11/22 12:55:49;;;;;;;38.33;25.60;;;4.50;99.90;;;;;;5111229;28;20707;-38
2023/11/22 12:58:16;;;;;;;28.80;19.87;;;4.50;1.00;;;;;;5093347;28;20664;-38
2023/11/22 13:00:43;;;;;;;13.67;11.30;;;4.50;1.00;;;;;;5091851;28;20994;-39